createdAt,value
2017-11-14T00:05:25.245Z,90.60
2017-11-14T00:11:28.716Z,91.04
2017-11-14T00:17:32.952Z,91.16
2017-11-14T00:23:36.411Z,91.20
2017-11-14T00:29:40.013Z,91.12
2017-11-14T00:35:43.474Z,91.21
2017-11-14T00:41:46.943Z,90.31
2017-11-14T00:47:51.170Z,90.53
2017-11-14T00:53:54.623Z,90.75
2017-11-14T00:59:58.101Z,91.06
2017-11-14T01:06:01.564Z,90.71
2017-11-14T01:12:05.042Z,90.83
2017-11-14T01:18:08.515Z,90.61
2017-11-14T01:24:11.995Z,90.17
2017-11-14T01:30:15.467Z,90.41
2017-11-14T01:36:19.280Z,90.44
2017-11-14T01:42:22.733Z,90.33
2017-11-14T01:48:26.278Z,90.22
2017-11-14T01:54:29.750Z,90.43
2017-11-14T02:00:50.016Z,90.49
2017-11-14T02:06:53.802Z,90.55
2017-11-14T02:12:57.272Z,90.58
2017-11-14T02:19:00.728Z,90.57
2017-11-14T02:25:04.936Z,90.44
2017-11-14T02:31:08.405Z,90.65
2017-11-14T02:37:12.636Z,90.67
2017-11-14T02:43:16.074Z,90.57
2017-11-14T02:49:19.519Z,89.98
2017-11-14T02:55:23.000Z,89.65
2017-11-14T03:01:26.465Z,89.55
2017-11-14T03:07:29.963Z,89.61
2017-11-14T03:13:34.768Z,89.73
2017-11-14T03:19:38.209Z,89.93
2017-11-14T03:25:41.963Z,90.46
2017-11-14T03:31:45.393Z,90.40
2017-11-14T03:37:49.629Z,90.60
2017-11-14T03:43:53.108Z,90.74
2017-11-14T03:49:56.570Z,90.13
2017-11-14T03:56:00.795Z,89.77
2017-11-14T04:02:04.615Z,90.00
2017-11-14T04:08:08.408Z,89.61
2017-11-14T04:14:12.028Z,88.82
2017-11-14T04:20:16.257Z,87.52
2017-11-14T04:26:19.876Z,88.10
2017-11-14T04:32:23.356Z,88.58
2017-11-14T04:38:26.818Z,89.02
2017-11-14T04:44:30.331Z,89.61
2017-11-14T04:50:33.798Z,90.04
2017-11-14T04:56:37.283Z,88.71
2017-11-14T05:02:40.735Z,88.69
2017-11-14T05:08:45.291Z,88.55
2017-11-14T05:14:48.779Z,88.69
2017-11-14T05:20:52.255Z,88.58
2017-11-14T05:26:55.726Z,88.95
2017-11-14T05:32:59.194Z,88.97
2017-11-14T05:39:03.266Z,89.23
2017-11-14T05:45:07.488Z,88.78
2017-11-14T05:51:10.967Z,88.61
2017-11-14T05:57:14.438Z,88.40
2017-11-14T06:03:18.689Z,88.22
2017-11-14T06:09:22.378Z,88.29
2017-11-14T06:15:25.815Z,88.42
2017-11-14T06:21:30.168Z,88.56
2017-11-14T06:27:33.733Z,88.54
2017-11-14T06:33:37.207Z,88.44
2017-11-14T06:39:40.692Z,89.00
2017-11-14T06:45:44.182Z,89.59
2017-11-14T06:51:47.649Z,89.88
2017-11-14T06:57:51.482Z,90.18
2017-11-14T07:03:54.935Z,89.98
2017-11-14T07:09:58.394Z,89.31
2017-11-14T07:16:03.320Z,89.19
2017-11-14T07:22:06.791Z,89.00
2017-11-14T07:28:11.354Z,88.09
2017-11-14T07:34:14.818Z,87.62
2017-11-14T07:40:18.289Z,87.35
2017-11-14T07:46:21.801Z,86.67
2017-11-14T07:52:25.324Z,85.75
2017-11-14T07:58:29.572Z,84.84
2017-11-14T08:04:33.045Z,84.80
2017-11-14T08:10:36.523Z,84.72
2017-11-14T08:16:39.996Z,85.15
2017-11-14T08:22:44.253Z,85.50
2017-11-14T08:28:47.773Z,85.43
2017-11-14T08:34:51.257Z,85.32
2017-11-14T08:40:54.725Z,84.89
2017-11-14T08:46:58.486Z,84.72
2017-11-14T08:53:01.949Z,83.86
2017-11-14T08:59:05.775Z,83.37
2017-11-14T09:05:09.220Z,82.67
2017-11-14T09:11:12.693Z,81.35
2017-11-14T09:17:16.507Z,79.70
2017-11-14T09:23:19.974Z,79.71
2017-11-14T09:29:23.800Z,79.36
2017-11-14T09:35:27.250Z,79.15
2017-11-14T09:41:30.702Z,78.61
2017-11-14T09:47:34.154Z,78.48
2017-11-14T09:53:37.921Z,77.18
2017-11-14T09:59:41.361Z,76.51
2017-11-14T10:05:44.835Z,75.92
2017-11-14T10:11:48.360Z,73.59
2017-11-14T10:17:51.815Z,74.71
2017-11-14T10:23:55.260Z,74.21
2017-11-14T10:29:58.708Z,74.27
2017-11-14T10:36:02.548Z,73.79
2017-11-14T10:42:05.978Z,72.50
2017-11-14T10:48:09.703Z,71.05
2017-11-14T10:54:13.128Z,70.21
2017-11-14T11:00:22.701Z,70.02
2017-11-14T11:06:26.148Z,70.40
2017-11-14T11:12:30.354Z,71.16
2017-11-14T11:18:34.913Z,72.97
2017-11-14T11:24:38.392Z,73.61
2017-11-14T11:30:41.846Z,73.93
2017-11-14T11:36:45.294Z,73.14
2017-11-14T11:42:48.764Z,74.30
2017-11-14T11:48:52.236Z,74.66
2017-11-14T11:54:56.025Z,74.82
2017-11-14T12:00:59.536Z,74.30
2017-11-14T12:07:04.014Z,74.54
2017-11-14T12:13:07.463Z,74.95
2017-11-14T12:19:10.927Z,74.33
2017-11-14T12:25:15.148Z,75.02
2017-11-14T12:31:18.588Z,74.86
2017-11-14T12:37:22.455Z,75.84
2017-11-14T12:43:25.910Z,75.38
2017-11-14T12:49:29.387Z,75.81
2017-11-14T12:55:32.974Z,75.62
2017-11-14T13:01:36.459Z,75.23
2017-11-14T13:07:39.931Z,74.31
2017-11-14T13:13:44.169Z,74.84
2017-11-14T13:19:47.638Z,74.63
2017-11-14T13:25:51.097Z,73.46
2017-11-14T13:31:55.314Z,73.81
2017-11-14T13:37:58.759Z,74.19
2017-11-14T13:44:02.355Z,74.54
2017-11-14T13:50:05.825Z,74.99
2017-11-14T13:56:09.609Z,74.82
2017-11-14T14:02:13.080Z,74.28
2017-11-14T14:08:16.868Z,73.83
2017-11-14T14:14:20.339Z,74.00
2017-11-14T14:20:23.806Z,74.20
2017-11-14T14:26:27.630Z,74.21
2017-11-14T14:32:31.123Z,74.89
2017-11-14T14:38:34.591Z,74.63
2017-11-14T14:44:38.049Z,74.97
2017-11-14T14:50:41.875Z,74.20
2017-11-14T14:56:45.341Z,74.83
2017-11-14T15:02:49.152Z,76.02
2017-11-14T15:08:52.624Z,74.22
2017-11-14T15:14:56.190Z,75.40
2017-11-14T15:20:59.665Z,76.66
2017-11-14T15:27:03.135Z,76.94
2017-11-14T15:33:07.369Z,77.66
2017-11-14T15:39:10.894Z,78.44
2017-11-14T15:45:14.382Z,78.76
2017-11-14T15:51:17.866Z,80.18
2017-11-14T15:57:22.124Z,79.33
2017-11-14T16:03:25.596Z,79.22
2017-11-14T16:09:29.064Z,80.70
2017-11-14T16:15:32.526Z,80.60
2017-11-14T16:21:36.033Z,81.07
2017-11-14T16:27:39.517Z,81.71
2017-11-14T16:33:43.776Z,82.41
2017-11-14T16:39:47.556Z,80.96
2017-11-14T16:45:51.013Z,83.40
2017-11-14T16:51:54.639Z,81.70
2017-11-14T16:57:58.097Z,81.85
2017-11-14T17:04:01.574Z,81.52
2017-11-14T17:10:05.047Z,81.31
2017-11-14T17:16:08.560Z,81.35
2017-11-14T17:22:12.028Z,81.12
2017-11-14T17:28:15.547Z,81.69
2017-11-14T17:34:19.040Z,81.32
2017-11-14T17:40:22.506Z,82.73
2017-11-14T17:46:25.992Z,81.92
2017-11-14T17:52:29.868Z,82.62
2017-11-14T17:58:33.356Z,83.18
2017-11-14T18:04:36.839Z,84.06
2017-11-14T18:10:40.346Z,85.00
2017-11-14T18:16:43.825Z,83.33
2017-11-14T18:22:47.309Z,83.54
2017-11-14T18:28:50.786Z,82.39
2017-11-14T18:34:54.269Z,83.35
2017-11-14T18:40:57.741Z,82.06
2017-11-14T18:47:01.243Z,81.35
2017-11-14T18:53:04.736Z,81.20
2017-11-14T18:59:08.229Z,82.56
2017-11-14T19:05:11.751Z,82.87
2017-11-14T19:11:15.242Z,83.48
2017-11-14T19:17:18.732Z,83.89
2017-11-14T19:23:22.239Z,84.01
2017-11-14T19:29:26.527Z,83.97
2017-11-14T19:35:30.083Z,85.14
2017-11-14T19:41:34.310Z,85.12
2017-11-14T19:47:37.816Z,83.89
2017-11-14T19:53:42.144Z,83.93
2017-11-14T19:59:47.126Z,83.69
2017-11-14T20:05:50.615Z,84.07
2017-11-14T20:11:54.109Z,85.12
2017-11-14T20:17:57.572Z,85.67
2017-11-14T20:24:01.125Z,86.02
2017-11-14T20:30:05.394Z,86.44
2017-11-14T20:36:08.857Z,86.74
2017-11-14T20:42:12.663Z,86.29
2017-11-14T20:48:16.195Z,87.12
2017-11-14T20:54:19.680Z,86.49
2017-11-14T21:00:23.207Z,86.65
2017-11-14T21:06:26.688Z,87.60
2017-11-14T21:12:30.504Z,88.15
2017-11-14T21:18:33.981Z,87.68
2017-11-14T21:24:37.494Z,87.87
2017-11-14T21:30:41.724Z,87.12
2017-11-14T21:36:45.211Z,87.36
2017-11-14T21:42:48.667Z,87.20
2017-11-14T21:48:52.924Z,87.17
2017-11-14T21:54:56.400Z,87.47
2017-11-14T22:00:59.931Z,87.99
2017-11-14T22:07:04.671Z,87.93
2017-11-14T22:13:08.493Z,87.77
2017-11-14T22:19:12.013Z,87.72
2017-11-14T22:25:15.470Z,87.97
2017-11-14T22:31:18.938Z,88.47
2017-11-14T22:37:24.044Z,88.71
2017-11-14T22:43:27.532Z,88.25
2017-11-14T22:49:31.540Z,88.85
2017-11-14T22:55:35.018Z,89.19
2017-11-14T23:01:38.484Z,89.24
2017-11-14T23:07:42.029Z,88.89
2017-11-14T23:13:45.556Z,88.90
2017-11-14T23:19:49.061Z,88.58
2017-11-14T23:25:52.607Z,88.43
2017-11-14T23:31:56.156Z,88.20
2017-11-14T23:38:00.474Z,88.11
2017-11-14T23:44:03.973Z,87.62
2017-11-14T23:50:08.298Z,87.43
2017-11-14T23:56:11.863Z,87.69
